createdAt,value
2018-05-17T00:02:05.678Z,10.23
2018-05-17T00:04:34.497Z,10.13
2018-05-17T00:07:04.237Z,11.87
2018-05-17T00:09:33.039Z,9.20
2018-05-17T00:12:01.817Z,9.40
2018-05-17T00:14:31.493Z,9.20
2018-05-17T00:17:00.351Z,8.87
2018-05-17T00:19:29.406Z,9.83
2018-05-17T00:21:58.334Z,9.03
2018-05-17T00:24:27.117Z,9.00
2018-05-17T00:26:55.985Z,8.97
2018-05-17T00:29:24.838Z,9.90
2018-05-17T00:31:53.642Z,9.30
2018-05-17T00:34:22.766Z,12.63
2018-05-17T00:36:51.608Z,9.03
2018-05-17T00:39:20.391Z,9.57
2018-05-17T00:41:49.755Z,9.50
2018-05-17T00:44:18.529Z,8.63
2018-05-17T00:46:47.327Z,7.60
2018-05-17T00:49:16.174Z,11.60
2018-05-17T00:51:44.978Z,8.07
2018-05-17T00:54:13.774Z,8.67
2018-05-17T00:56:42.678Z,12.33
2018-05-17T00:59:11.512Z,10.50
2018-05-17T01:01:40.333Z,9.87
2018-05-17T01:04:09.170Z,11.97
2018-05-17T01:06:38.299Z,11.83
2018-05-17T01:09:09.903Z,10.23
2018-05-17T01:11:39.097Z,10.60
2018-05-17T01:14:08.004Z,12.10
2018-05-17T01:16:37.433Z,10.60
2018-05-17T01:19:06.491Z,11.13
2018-05-17T01:21:35.287Z,14.60
2018-05-17T01:24:04.089Z,11.87
2018-05-17T01:26:33.562Z,13.50
2018-05-17T01:29:02.361Z,12.77
2018-05-17T01:31:31.176Z,13.47
2018-05-17T01:33:59.993Z,14.07
2018-05-17T01:36:28.810Z,17.50
2018-05-17T01:38:58.022Z,15.77
2018-05-17T01:41:26.842Z,19.10
2018-05-17T01:43:55.627Z,18.57
2018-05-17T01:46:25.216Z,20.47
2018-05-17T01:48:54.022Z,16.40
2018-05-17T01:51:22.894Z,16.17
2018-05-17T01:53:51.714Z,16.33
2018-05-17T01:56:20.525Z,13.73
2018-05-17T01:58:49.571Z,14.80
2018-05-17T02:01:18.361Z,12.90
2018-05-17T02:03:47.169Z,16.17
2018-05-17T02:06:16.046Z,16.10
2018-05-17T02:08:46.459Z,17.47
2018-05-17T02:11:15.328Z,19.57
2018-05-17T02:13:44.145Z,20.83
2018-05-17T02:16:12.942Z,21.93
2018-05-17T02:18:42.818Z,23.17
2018-05-17T02:21:11.638Z,23.87
2018-05-17T02:23:40.435Z,25.70
2018-05-17T02:26:10.205Z,23.90
2018-05-17T02:28:39.009Z,24.30
2018-05-17T02:31:07.789Z,30.33
2018-05-17T02:33:36.674Z,35.13
2018-05-17T02:36:05.518Z,36.37
2018-05-17T02:38:34.316Z,36.93
2018-05-17T02:41:03.182Z,45.37
2018-05-17T02:43:32.075Z,46.50
2018-05-17T02:46:00.951Z,47.33
2018-05-17T02:48:29.784Z,45.13
2018-05-17T02:50:58.578Z,44.70
2018-05-17T02:53:27.626Z,44.43
2018-05-17T02:55:56.527Z,46.23
2018-05-17T02:58:25.339Z,45.23
2018-05-17T03:00:54.184Z,47.07
2018-05-17T03:03:23.007Z,46.17
2018-05-17T03:05:51.890Z,45.23
2018-05-17T03:08:21.699Z,48.67
2018-05-17T03:10:50.593Z,48.10
2018-05-17T03:13:19.394Z,47.20
2018-05-17T03:15:48.466Z,50.70
2018-05-17T03:18:17.363Z,50.37
2018-05-17T03:20:46.256Z,48.83
2018-05-17T03:23:15.147Z,51.53
2018-05-17T03:25:43.957Z,53.37
2018-05-17T03:28:13.346Z,49.63
2018-05-17T03:30:42.141Z,51.93
2018-05-17T03:33:10.939Z,50.33
2018-05-17T03:35:39.769Z,54.30
2018-05-17T03:38:08.575Z,53.07
2018-05-17T03:40:37.998Z,54.07
2018-05-17T03:43:06.799Z,57.13
2018-05-17T03:45:35.674Z,54.17
2018-05-17T03:48:04.874Z,54.50
2018-05-17T03:50:33.773Z,57.60
2018-05-17T03:53:02.573Z,55.90
2018-05-17T03:55:31.398Z,60.53
2018-05-17T03:58:00.242Z,56.67
2018-05-17T04:00:35.066Z,55.93
2018-05-17T04:03:09.643Z,53.80
2018-05-17T04:05:45.347Z,55.97
2018-05-17T04:08:15.642Z,55.00
2018-05-17T04:10:44.557Z,51.67
2018-05-17T04:13:13.462Z,55.03
2018-05-17T04:15:42.241Z,53.43
2018-05-17T04:18:11.041Z,54.17
2018-05-17T04:20:40.233Z,48.00
2018-05-17T04:23:09.091Z,51.50
2018-05-17T04:25:37.884Z,47.43
2018-05-17T04:28:06.715Z,46.03
2018-05-17T04:30:35.501Z,47.80
2018-05-17T04:33:04.566Z,47.10
2018-05-17T04:35:33.361Z,46.53
2018-05-17T04:38:02.264Z,44.33
2018-05-17T04:40:31.480Z,44.50
2018-05-17T04:43:00.254Z,44.10
2018-05-17T04:45:29.055Z,44.43
2018-05-17T04:47:57.913Z,46.47
2018-05-17T04:50:26.717Z,45.77
2018-05-17T04:52:55.511Z,40.93
2018-05-17T04:55:24.350Z,40.27
2018-05-17T04:57:53.191Z,42.57
2018-05-17T05:00:22.084Z,45.57
2018-05-17T05:02:51.963Z,44.60
2018-05-17T05:05:20.692Z,48.20
2018-05-17T05:07:50.695Z,46.23
2018-05-17T05:10:19.889Z,40.10
2018-05-17T05:12:48.789Z,41.90
2018-05-17T05:15:17.770Z,41.37
2018-05-17T05:17:46.578Z,48.93
2018-05-17T05:20:15.386Z,47.17
2018-05-17T05:22:44.385Z,38.40
2018-05-17T05:25:13.320Z,39.10
2018-05-17T05:27:42.135Z,40.27
2018-05-17T05:30:10.954Z,42.77
2018-05-17T05:32:39.813Z,42.33
2018-05-17T05:35:08.805Z,44.20
2018-05-17T05:37:37.653Z,37.40
2018-05-17T05:40:06.482Z,45.17
2018-05-17T05:42:35.369Z,37.53
2018-05-17T05:45:04.170Z,37.90
2018-05-17T05:47:32.968Z,45.03
2018-05-17T05:50:01.850Z,42.07
2018-05-17T05:52:30.635Z,43.93
2018-05-17T05:54:59.430Z,47.07
2018-05-17T05:57:28.488Z,46.90
2018-05-17T05:59:57.322Z,46.03
2018-05-17T06:02:26.136Z,48.00
2018-05-17T06:04:55.503Z,48.97
2018-05-17T06:07:29.301Z,50.30
2018-05-17T06:09:58.193Z,51.57
2018-05-17T06:12:27.189Z,49.83
2018-05-17T06:14:56.131Z,49.53
2018-05-17T06:17:25.220Z,49.73
2018-05-17T06:19:53.970Z,52.47
2018-05-17T06:22:22.935Z,50.13
2018-05-17T06:24:52.158Z,52.20
2018-05-17T06:27:20.966Z,53.10
2018-05-17T06:29:49.761Z,49.40
2018-05-17T06:32:19.011Z,51.70
2018-05-17T06:34:47.810Z,49.30
2018-05-17T06:37:16.618Z,49.57
2018-05-17T06:39:45.709Z,52.40
2018-05-17T06:42:14.512Z,54.53
2018-05-17T06:44:43.345Z,47.37
2018-05-17T06:47:12.275Z,52.93
2018-05-17T06:49:41.093Z,48.53
2018-05-17T06:52:09.879Z,49.40
2018-05-17T06:54:38.754Z,49.63
2018-05-17T06:57:07.549Z,46.80
2018-05-17T06:59:36.434Z,47.40
2018-05-17T07:02:05.322Z,52.47
2018-05-17T07:04:34.118Z,53.60
2018-05-17T07:07:02.957Z,48.03
2018-05-17T07:09:33.845Z,55.73
2018-05-17T07:12:02.968Z,50.30
2018-05-17T07:14:32.094Z,47.30
2018-05-17T07:17:00.890Z,43.43
2018-05-17T07:19:29.913Z,45.60
2018-05-17T07:21:58.837Z,45.93
2018-05-17T07:24:27.695Z,42.20
2018-05-17T07:26:57.502Z,46.97
2018-05-17T07:29:26.299Z,40.20
2018-05-17T07:31:55.103Z,46.10
2018-05-17T07:34:23.916Z,39.20
2018-05-17T07:36:52.718Z,39.97
2018-05-17T07:39:22.232Z,45.40
2018-05-17T07:41:50.968Z,41.70
2018-05-17T07:44:20.203Z,44.17
2018-05-17T07:46:49.212Z,39.63
2018-05-17T07:49:17.945Z,43.40
2018-05-17T07:51:46.834Z,39.03
2018-05-17T07:54:15.682Z,38.37
2018-05-17T07:56:44.484Z,39.67
2018-05-17T07:59:13.301Z,42.27
2018-05-17T08:01:42.324Z,38.23
2018-05-17T08:04:11.141Z,41.13
2018-05-17T08:06:39.946Z,36.17
2018-05-17T08:09:10.189Z,40.00
2018-05-17T08:11:39.089Z,36.33
2018-05-17T08:14:07.902Z,36.13
2018-05-17T08:16:37.083Z,36.20
2018-05-17T08:19:05.970Z,37.93
2018-05-17T08:21:34.766Z,34.80
2018-05-17T08:24:03.856Z,39.07
2018-05-17T08:26:32.749Z,37.77
2018-05-17T08:29:01.604Z,39.97
2018-05-17T08:31:31.142Z,37.03
2018-05-17T08:34:00.031Z,33.47
2018-05-17T08:36:28.920Z,36.20
2018-05-17T08:38:57.662Z,39.70
2018-05-17T08:41:26.465Z,37.20
2018-05-17T08:43:55.390Z,37.93
2018-05-17T08:46:24.298Z,33.90
2018-05-17T08:48:53.119Z,34.87
2018-05-17T08:51:22.282Z,35.80
2018-05-17T08:53:51.108Z,36.00
2018-05-17T08:56:19.912Z,38.70
2018-05-17T08:58:48.971Z,36.13
2018-05-17T09:01:17.771Z,34.53
2018-05-17T09:03:46.574Z,32.57
2018-05-17T09:06:15.742Z,31.37
2018-05-17T09:08:46.507Z,37.13
2018-05-17T09:11:15.306Z,29.90
2018-05-17T09:13:44.550Z,30.73
2018-05-17T09:16:13.344Z,32.47
2018-05-17T09:18:42.327Z,33.13
2018-05-17T09:21:11.251Z,36.43
2018-05-17T09:23:40.025Z,28.57
2018-05-17T09:26:08.858Z,31.23
2018-05-17T09:28:38.105Z,34.07
2018-05-17T09:31:06.929Z,32.83
2018-05-17T09:33:35.727Z,30.27
2018-05-17T09:36:04.554Z,30.57
2018-05-17T09:38:33.460Z,28.53
2018-05-17T09:41:02.757Z,26.73
2018-05-17T09:43:31.546Z,25.93
2018-05-17T09:46:00.354Z,24.63
2018-05-17T09:48:29.349Z,28.27
2018-05-17T09:50:58.220Z,26.60
2018-05-17T09:53:27.115Z,27.80
2018-05-17T09:55:56.007Z,28.13
2018-05-17T09:58:24.811Z,26.50
2018-05-17T10:00:53.617Z,26.70
2018-05-17T10:03:23.082Z,27.47
2018-05-17T10:05:51.978Z,26.07
2018-05-17T10:08:22.828Z,30.73
2018-05-17T10:10:52.012Z,27.33
2018-05-17T10:13:20.902Z,25.70
2018-05-17T10:15:49.703Z,27.23
2018-05-17T10:18:18.502Z,27.60
2018-05-17T10:20:47.546Z,25.30
2018-05-17T10:23:16.414Z,28.27
2018-05-17T10:25:45.212Z,27.93
2018-05-17T10:28:14.051Z,27.03
2018-05-17T10:30:43.038Z,25.13
2018-05-17T10:33:11.833Z,28.30
2018-05-17T10:35:40.728Z,24.60
2018-05-17T10:38:09.760Z,21.47
2018-05-17T10:40:38.562Z,25.77
2018-05-17T10:43:07.389Z,26.33
2018-05-17T10:45:37.222Z,24.73
2018-05-17T10:48:06.019Z,24.87
2018-05-17T10:50:34.890Z,27.90
2018-05-17T10:53:03.730Z,22.47
2018-05-17T10:55:32.564Z,26.13
2018-05-17T10:58:02.281Z,26.47
2018-05-17T11:00:31.244Z,23.62
2018-05-17T11:03:00.048Z,25.63
2018-05-17T11:05:28.874Z,24.15
2018-05-17T11:07:59.178Z,26.65
2018-05-17T11:10:28.017Z,24.65
2018-05-17T11:12:56.851Z,24.25
2018-05-17T11:15:26.126Z,25.62
2018-05-17T11:17:55.054Z,25.20
2018-05-17T11:20:23.951Z,24.33
2018-05-17T11:22:53.698Z,26.17
2018-05-17T11:25:22.521Z,25.05
2018-05-17T11:27:51.338Z,23.60
2018-05-17T11:30:20.136Z,20.00
2018-05-17T11:32:49.007Z,23.10
2018-05-17T11:35:17.887Z,22.13
2018-05-17T11:37:46.697Z,23.70
2018-05-17T11:40:15.675Z,24.42
2018-05-17T11:42:44.565Z,23.62
2018-05-17T11:45:13.381Z,23.98
2018-05-17T11:47:42.357Z,20.27
2018-05-17T11:50:11.166Z,26.00
2018-05-17T11:52:40.001Z,21.70
2018-05-17T11:55:08.821Z,20.33
2018-05-17T11:57:37.648Z,20.90
2018-05-17T12:00:06.505Z,21.15
2018-05-17T12:02:36.329Z,24.17
2018-05-17T12:05:05.101Z,18.98
2018-05-17T12:10:18.349Z,20.75
2018-05-17T12:12:47.541Z,26.87
2018-05-17T12:15:16.478Z,23.95
2018-05-17T12:17:45.317Z,19.65
2018-05-17T12:20:14.220Z,19.62
2018-05-17T12:22:43.102Z,22.95
2018-05-17T12:25:13.639Z,17.77
2018-05-17T12:27:42.530Z,19.92
2018-05-17T12:30:11.330Z,18.77
2018-05-17T12:32:40.308Z,18.92
2018-05-17T12:35:08.986Z,18.83
2018-05-17T12:37:37.787Z,18.10
2018-05-17T12:40:06.908Z,17.40
2018-05-17T12:42:35.779Z,20.77
2018-05-17T12:45:04.619Z,19.40
2018-05-17T12:47:34.582Z,18.83
2018-05-17T12:50:03.386Z,15.07
2018-05-17T12:52:32.266Z,18.45
2018-05-17T12:55:01.369Z,15.77
2018-05-17T12:57:30.258Z,16.25
2018-05-17T12:59:59.062Z,18.35
2018-05-17T13:02:28.025Z,14.07
2018-05-17T13:04:56.931Z,19.27
2018-05-17T13:07:28.068Z,17.50
2018-05-17T13:09:56.903Z,15.65
2018-05-17T13:12:25.717Z,20.10
2018-05-17T13:14:54.538Z,17.90
2018-05-17T13:17:23.353Z,17.42
2018-05-17T13:19:52.531Z,19.02
2018-05-17T13:22:21.331Z,15.75
2018-05-17T13:24:50.157Z,16.02
2018-05-17T13:27:19.810Z,15.65
2018-05-17T13:29:48.603Z,18.90
2018-05-17T13:32:17.434Z,14.90
2018-05-17T13:34:46.234Z,13.55
2018-05-17T13:37:16.226Z,16.85
2018-05-17T13:39:45.071Z,12.43
2018-05-17T13:42:13.880Z,11.98
2018-05-17T13:44:43.099Z,14.35
2018-05-17T13:47:11.890Z,11.90
2018-05-17T13:49:40.689Z,12.98
2018-05-17T13:52:09.749Z,16.92
2018-05-17T13:54:38.554Z,13.95
2018-05-17T13:57:07.416Z,12.52
2018-05-17T13:59:37.035Z,12.37
2018-05-17T14:02:05.842Z,13.50
2018-05-17T14:04:34.645Z,14.68
2018-05-17T14:07:03.515Z,15.52
2018-05-17T14:09:33.319Z,14.07
2018-05-17T14:12:02.128Z,21.15
2018-05-17T14:14:31.075Z,16.15
2018-05-17T14:16:59.881Z,16.75
2018-05-17T14:19:28.691Z,19.12
2018-05-17T14:21:57.577Z,19.10
2018-05-17T14:24:26.374Z,17.95
2018-05-17T14:26:55.965Z,17.42
2018-05-17T14:29:25.526Z,16.92
2018-05-17T14:31:54.316Z,18.23
2018-05-17T14:34:23.357Z,15.90
2018-05-17T14:36:52.247Z,15.48
2018-05-17T14:39:21.047Z,12.68
2018-05-17T14:41:49.892Z,14.68
2018-05-17T14:44:18.690Z,12.90
2018-05-17T14:46:47.490Z,15.88
2018-05-17T14:49:17.018Z,13.90
2018-05-17T14:51:45.812Z,14.77
2018-05-17T14:54:14.634Z,11.88
2018-05-17T14:56:43.519Z,14.07
2018-05-17T14:59:12.370Z,14.38
2018-05-17T15:01:41.178Z,12.50
2018-05-17T15:04:10.258Z,13.07
2018-05-17T15:06:39.058Z,16.27
2018-05-17T15:09:09.021Z,15.60
2018-05-17T15:11:37.958Z,14.57
2018-05-17T15:14:06.752Z,16.90
2018-05-17T15:16:35.841Z,13.77
2018-05-17T15:19:04.651Z,14.45
2018-05-17T15:21:33.515Z,14.80
2018-05-17T15:24:03.038Z,11.80
2018-05-17T15:26:31.823Z,12.10
2018-05-17T15:29:02.655Z,14.15
2018-05-17T15:31:31.549Z,12.65
2018-05-17T15:34:00.456Z,13.00
2018-05-17T15:36:29.426Z,13.55
2018-05-17T15:38:58.233Z,12.10
2018-05-17T15:41:27.033Z,12.98
2018-05-17T15:43:56.099Z,12.48
2018-05-17T15:46:24.889Z,11.32
2018-05-17T15:48:53.790Z,11.00
2018-05-17T15:51:22.776Z,9.15
2018-05-17T15:53:51.589Z,12.57
2018-05-17T15:56:20.381Z,11.30
2018-05-17T15:58:49.238Z,13.45
2018-05-17T16:01:18.038Z,13.98
2018-05-17T16:03:46.861Z,13.00
2018-05-17T16:06:19.583Z,11.82
2018-05-17T16:08:50.123Z,14.18
2018-05-17T16:11:19.122Z,12.60
2018-05-17T16:13:47.920Z,14.20
2018-05-17T16:16:16.721Z,14.57
2018-05-17T16:18:45.597Z,12.88
2018-05-17T16:21:14.401Z,10.68
2018-05-17T16:23:43.197Z,11.55
2018-05-17T16:26:12.542Z,9.80
2018-05-17T16:28:41.342Z,13.90
2018-05-17T16:31:10.833Z,13.20
2018-05-17T16:33:39.765Z,12.95
2018-05-17T16:36:08.564Z,15.85
2018-05-17T16:38:37.359Z,12.32
2018-05-17T16:41:06.446Z,11.43
2018-05-17T16:43:36.113Z,15.00
2018-05-17T16:46:04.912Z,12.43
2018-05-17T16:48:33.858Z,12.32
2018-05-17T16:51:02.640Z,15.65
2018-05-17T16:53:31.497Z,12.00
2018-05-17T16:56:00.339Z,12.18
2018-05-17T16:58:29.193Z,16.02
2018-05-17T17:00:58.002Z,16.20
2018-05-17T17:03:28.025Z,14.87
2018-05-17T17:05:56.822Z,15.05
2018-05-17T17:08:27.106Z,14.13
2018-05-17T17:10:56.003Z,15.60
2018-05-17T17:13:24.806Z,17.37
2018-05-17T17:15:53.682Z,14.32
2018-05-17T17:18:22.474Z,12.75
2018-05-17T17:20:51.359Z,14.90
2018-05-17T17:23:20.192Z,15.35
2018-05-17T17:25:49.004Z,15.18
2018-05-17T17:28:18.864Z,12.93
2018-05-17T17:30:47.689Z,17.90
2018-05-17T17:33:16.594Z,16.02
2018-05-17T17:35:45.522Z,14.95
2018-05-17T17:38:14.321Z,18.17
2018-05-17T17:40:49.559Z,13.20
2018-05-17T17:43:18.353Z,14.93
2018-05-17T17:45:47.170Z,15.50
2018-05-17T17:48:16.042Z,18.17
2018-05-17T17:50:44.859Z,12.95
2018-05-17T17:53:13.682Z,15.82
2018-05-17T17:55:42.522Z,14.18
2018-05-17T17:58:11.324Z,13.17
2018-05-17T18:00:40.131Z,13.73
2018-05-17T18:03:08.979Z,17.90
2018-05-17T18:05:37.762Z,15.37
2018-05-17T18:08:08.482Z,16.83
2018-05-17T18:10:37.600Z,13.40
2018-05-17T18:13:06.392Z,15.23
2018-05-17T18:15:35.195Z,15.40
2018-05-17T18:18:04.262Z,14.60
2018-05-17T18:20:33.147Z,12.53
2018-05-17T18:23:01.956Z,13.83
2018-05-17T18:25:31.135Z,15.00
2018-05-17T18:28:00.025Z,15.93
2018-05-17T18:30:28.846Z,16.17
2018-05-17T18:32:58.626Z,12.87
2018-05-17T18:35:27.440Z,17.93
2018-05-17T18:37:56.231Z,15.83
2018-05-17T18:40:25.099Z,14.70
2018-05-17T18:42:53.895Z,12.53
2018-05-17T18:45:22.685Z,15.33
2018-05-17T18:47:51.883Z,13.90
2018-05-17T18:50:20.759Z,16.37
2018-05-17T18:52:49.558Z,14.73
2018-05-17T18:55:22.912Z,15.10
2018-05-17T18:57:47.665Z,15.30
2018-05-17T19:00:16.487Z,14.10
2018-05-17T19:02:45.880Z,13.63
2018-05-17T19:05:14.660Z,17.33
2018-05-17T19:07:44.734Z,18.33
2018-05-17T19:10:13.563Z,19.13
2018-05-17T19:12:42.373Z,12.60
2018-05-17T19:15:11.420Z,16.47
2018-05-17T19:17:40.232Z,15.00
2018-05-17T19:20:09.030Z,12.93
2018-05-17T19:22:38.415Z,16.20
2018-05-17T19:25:07.217Z,18.43
2018-05-17T19:27:36.026Z,16.47
2018-05-17T19:30:04.883Z,17.83
2018-05-17T19:32:33.682Z,13.50
2018-05-17T19:35:03.780Z,16.67
2018-05-17T19:37:32.592Z,15.37
2018-05-17T19:40:01.409Z,16.73
2018-05-17T19:42:30.559Z,14.83
2018-05-17T19:44:59.362Z,13.60
2018-05-17T19:47:28.158Z,17.43
2018-05-17T19:49:57.041Z,16.63
2018-05-17T19:52:25.840Z,16.83
2018-05-17T19:54:54.645Z,15.17
2018-05-17T19:57:23.689Z,17.77
2018-05-17T19:59:52.491Z,17.67
2018-05-17T20:02:21.291Z,18.27
2018-05-17T20:04:50.900Z,21.00
2018-05-17T20:07:19.703Z,17.20
2018-05-17T20:09:52.356Z,21.10
2018-05-17T20:12:21.159Z,14.60
2018-05-17T20:14:50.036Z,17.80
2018-05-17T20:17:18.852Z,19.53
2018-05-17T20:19:47.668Z,17.13
2018-05-17T20:22:16.867Z,17.40
2018-05-17T20:24:45.679Z,14.97
2018-05-17T20:27:14.500Z,15.70
2018-05-17T20:29:43.880Z,20.40
2018-05-17T20:32:12.695Z,14.93
2018-05-17T20:34:41.520Z,16.00
2018-05-17T20:37:11.587Z,14.23
2018-05-17T20:39:40.419Z,17.90
2018-05-17T20:42:09.233Z,22.57
2018-05-17T20:44:38.059Z,24.10
2018-05-17T20:47:06.864Z,15.60
2018-05-17T20:49:35.757Z,17.53
2018-05-17T20:52:04.542Z,18.83
2018-05-17T20:54:33.427Z,19.73
2018-05-17T20:57:02.260Z,17.80
2018-05-17T20:59:31.046Z,15.00
2018-05-17T21:01:59.856Z,15.97
2018-05-17T21:04:29.587Z,21.17
2018-05-17T21:06:58.387Z,18.53
2018-05-17T21:09:28.391Z,18.83
2018-05-17T21:11:57.491Z,18.83
2018-05-17T21:14:26.389Z,15.90
2018-05-17T21:16:55.281Z,19.97
2018-05-17T21:19:24.119Z,16.80
2018-05-17T21:21:52.941Z,22.37
2018-05-17T21:24:21.743Z,20.33
2018-05-17T21:26:51.556Z,22.60
2018-05-17T21:29:20.361Z,15.50
2018-05-17T21:31:49.165Z,15.57
2018-05-17T21:34:18.069Z,15.67
2018-05-17T21:36:46.887Z,17.97
2018-05-17T21:39:15.698Z,19.77
2018-05-17T21:41:44.544Z,18.10
2018-05-17T21:44:13.367Z,15.50
2018-05-17T21:46:43.722Z,14.90
2018-05-17T21:49:12.539Z,14.70
2018-05-17T21:51:41.358Z,18.77
2018-05-17T21:54:10.231Z,16.20
2018-05-17T21:56:39.043Z,15.53
2018-05-17T21:59:07.863Z,16.90
2018-05-17T22:01:36.717Z,17.53
2018-05-17T22:04:05.523Z,18.40
2018-05-17T22:06:34.336Z,17.17
2018-05-17T22:09:06.658Z,14.67
2018-05-17T22:11:35.495Z,17.33
2018-05-17T22:14:04.677Z,15.80
2018-05-17T22:16:33.530Z,16.47
2018-05-17T22:19:02.343Z,16.43
2018-05-17T22:21:31.162Z,18.80
2018-05-17T22:24:00.246Z,13.50
2018-05-17T22:26:29.142Z,13.40
2018-05-17T22:28:58.041Z,13.27
2018-05-17T22:31:27.239Z,15.53
2018-05-17T22:33:56.052Z,11.53
2018-05-17T22:36:24.863Z,19.57
2018-05-17T22:38:53.695Z,14.50
2018-05-17T22:41:22.502Z,14.93
2018-05-17T22:43:51.391Z,12.80
2018-05-17T22:46:20.203Z,15.50
2018-05-17T22:48:49.029Z,17.77
2018-05-17T22:51:17.946Z,13.30
2018-05-17T22:53:46.749Z,11.73
2018-05-17T22:56:21.316Z,18.60
2018-05-17T22:58:50.130Z,14.97
2018-05-17T23:01:18.952Z,17.17
2018-05-17T23:03:48.146Z,17.30
2018-05-17T23:06:17.292Z,16.47
2018-05-17T23:08:47.975Z,19.30
2018-05-17T23:11:17.277Z,20.10
2018-05-17T23:13:46.081Z,16.37
2018-05-17T23:16:15.126Z,17.03
2018-05-17T23:18:44.001Z,15.93
2018-05-17T23:21:12.844Z,14.60
2018-05-17T23:23:41.656Z,15.77
2018-05-17T23:26:10.834Z,14.13
2018-05-17T23:28:39.718Z,14.47
2018-05-17T23:31:08.622Z,17.07
2018-05-17T23:33:37.807Z,12.57
2018-05-17T23:36:06.626Z,13.53
2018-05-17T23:38:35.487Z,13.73
2018-05-17T23:41:10.135Z,14.43
2018-05-17T23:43:38.954Z,15.30
2018-05-17T23:46:07.764Z,18.83
2018-05-17T23:48:36.627Z,12.67
2018-05-17T23:51:05.430Z,17.57
2018-05-17T23:53:34.265Z,16.03
2018-05-17T23:56:03.359Z,14.17
2018-05-17T23:58:32.158Z,16.23
